Time;durP1;ratioP1;P1;durP2;ratioP2;P2;SDS_P1;SDS_P2;PMS_P1;PMS_P2;Temp;Humidity;BMP_temperature;BMP_pressure;BME280_temperature;BME280_humidity;BME280_pressure;Samples;Min_cycle;Max_cycle;Signal;HPM_P1;HPM_P2
2021/01/03 00:00:36;;;;;;;15.17;9.60;;;;;;;0.61;94.70;95387.31;5097375;28;20469;-79
2021/01/03 00:03:03;;;;;;;16.17;9.73;;;;;;;0.53;94.74;95375.81;5101310;28;20508;-79
2021/01/03 00:05:32;;;;;;;15.40;9.67;;;;;;;0.51;94.35;95380.88;5101135;28;20437;-78
2021/01/03 00:07:59;;;;;;;15.40;9.60;;;;;;;0.46;94.66;95381.66;5101070;28;20499;-79
2021/01/03 00:10:25;;;;;;;18.63;11.20;;;;;;;0.49;94.39;95376.09;5087642;28;21041;-82
2021/01/03 00:12:52;;;;;;;15.77;10.07;;;;;;;0.53;94.45;95367.88;5078033;28;20474;-82
2021/01/03 00:15:21;;;;;;;13.23;8.67;;;;;;;0.51;94.44;95372.94;5078875;28;20500;-81
2021/01/03 00:17:48;;;;;;;17.77;9.43;;;;;;;0.40;94.61;95375.69;5078586;28;20441;-80
2021/01/03 00:20:17;;;;;;;17.97;11.63;;;;;;;0.48;94.43;95365.97;5076204;28;20491;-79
2021/01/03 00:22:43;;;;;;;17.47;9.70;;;;;;;0.46;93.89;95366.47;5077042;28;20449;-79
2021/01/03 00:25:11;;;;;;;20.53;10.43;;;;;;;0.24;95.01;95369.31;5076918;28;20445;-80
2021/01/03 00:27:38;;;;;;;14.63;8.83;;;;;;;0.32;94.51;95367.56;5079546;28;20425;-82
2021/01/03 00:30:06;;;;;;;14.03;9.63;;;;;;;0.32;94.75;95366.84;5079387;28;20552;-83
2021/01/03 00:32:32;;;;;;;15.33;10.37;;;;;;;0.39;94.51;95366.28;5079173;28;20491;-83
2021/01/03 00:35:00;;;;;;;14.00;8.70;;;;;;;0.53;94.16;95367.88;5078450;28;20448;-83
2021/01/03 00:37:26;;;;;;;15.80;10.33;;;;;;;0.53;93.15;95373.88;5078901;28;20438;-83
2021/01/03 00:39:53;;;;;;;13.90;8.20;;;;;;;0.48;93.51;95373.91;5077134;28;20484;-80
2021/01/03 00:42:19;;;;;;;15.63;10.33;;;;;;;0.43;94.25;95377.34;5076978;28;20461;-79
2021/01/03 00:44:46;;;;;;;17.50;11.30;;;;;;;0.39;94.14;95372.31;5076582;28;20963;-79
2021/01/03 00:47:13;;;;;;;15.77;10.37;;;;;;;0.42;93.92;95371.31;5076183;28;20445;-83
2021/01/03 00:49:39;;;;;;;16.47;10.50;;;;;;;0.43;94.21;95377.34;5077125;28;20449;-80
2021/01/03 00:52:06;;;;;;;20.50;11.70;;;;;;;0.51;94.03;95371.00;5077234;28;20492;-79
2021/01/03 00:54:33;;;;;;;23.30;10.83;;;;;;;0.50;93.77;95379.47;5077285;28;20441;-79
2021/01/03 00:56:59;;;;;;;16.03;9.70;;;;;;;0.36;93.79;95368.00;5077861;28;20509;-79
2021/01/03 00:59:25;;;;;;;15.30;9.23;;;;;;;0.41;94.08;95375.19;5077484;28;20532;-79
2021/01/03 01:01:52;;;;;;;14.83;9.00;;;;;;;0.50;92.99;95372.19;5075889;28;21026;-79
2021/01/03 01:04:19;;;;;;;17.47;9.63;;;;;;;0.49;93.37;95375.38;5075770;28;20484;-79
2021/01/03 01:06:45;;;;;;;18.30;8.10;;;;;;;0.42;93.34;95366.03;5075531;28;20448;-78
2021/01/03 01:09:13;;;;;;;15.40;9.27;;;;;;;0.43;93.51;95367.47;5074830;28;20457;-79
2021/01/03 01:11:40;;;;;;;14.00;9.40;;;;;;;0.34;93.35;95372.38;5075669;28;20464;-79
2021/01/03 01:14:07;;;;;;;14.70;9.17;;;;;;;0.32;94.05;95372.84;5076627;28;20819;-80
2021/01/03 01:16:34;;;;;;;17.13;9.50;;;;;;;0.41;93.44;95374.47;5077891;28;20426;-79
2021/01/03 01:19:00;;;;;;;17.90;9.63;;;;;;;0.24;93.68;95381.88;5077840;28;20540;-79
2021/01/03 01:21:27;;;;;;;15.73;10.03;;;;;;;0.38;93.41;95368.22;5075906;28;20481;-79
2021/01/03 01:23:53;;;;;;;14.43;8.50;;;;;;;0.45;93.51;95372.25;5076439;28;20454;-81
2021/01/03 01:26:21;;;;;;;13.00;8.50;;;;;;;0.48;93.21;95377.31;5079999;28;20460;-81
2021/01/03 01:28:48;;;;;;;15.13;9.60;;;;;;;0.46;92.99;95368.41;5080394;28;20610;-81
2021/01/03 01:31:14;;;;;;;16.00;9.23;;;;;;;0.51;92.82;95375.59;5080601;28;20477;-81
2021/01/03 01:33:40;;;;;;;15.00;8.80;;;;;;;0.39;92.42;95376.91;5080939;28;20553;-81
2021/01/03 01:36:08;;;;;;;12.00;8.97;;;;;;;0.40;93.22;95379.06;5079527;28;20446;-81
2021/01/03 01:38:34;;;;;;;14.43;8.73;;;;;;;0.36;93.36;95373.31;5080419;28;20441;-81
2021/01/03 01:41:01;;;;;;;14.43;10.20;;;;;;;0.32;93.40;95377.44;5090044;28;20445;-80
2021/01/03 01:43:28;;;;;;;18.40;10.70;;;;;;;0.33;93.27;95384.19;5099178;28;20463;-81
2021/01/03 01:45:55;;;;;;;17.10;9.40;;;;;;;0.41;93.32;95382.44;5099065;28;20481;-81
2021/01/03 01:48:28;;;;;;;13.43;8.83;;;;;;;0.56;92.35;95385.44;5099211;28;20453;-81
2021/01/03 01:50:57;;;;;;;15.73;10.00;;;;;;;0.57;92.50;95375.53;5079767;28;20409;-82
2021/01/03 01:53:29;;;;;;;14.33;9.87;;;;;;;0.44;92.32;95382.16;5075194;28;20450;-81
2021/01/03 01:56:07;;;;;;;18.60;9.90;;;;;;;0.46;92.74;95379.00;5075449;28;20422;-81
2021/01/03 01:58:44;;;;;;;16.20;10.70;;;;;;;0.39;93.33;95382.22;5075225;28;20801;-82
2021/01/03 02:01:18;;;;;;;18.57;10.20;;;;;;;0.42;93.36;95375.91;5074913;28;20967;-82
2021/01/03 02:03:51;;;;;;;16.53;9.97;;;;;;;0.37;93.72;95379.34;5074117;28;20909;-82
2021/01/03 02:06:22;;;;;;;17.33;10.60;;;;;;;0.27;94.53;95370.25;5076154;28;20406;-81
2021/01/03 02:08:53;;;;;;;20.97;11.80;;;;;;;0.20;95.03;95370.81;5077045;28;21010;-81
2021/01/03 02:11:23;;;;;;;18.43;11.93;;;;;;;0.25;95.39;95375.34;5075695;28;20429;-81
2021/01/03 02:13:53;;;;;;;18.00;12.03;;;;;;;0.23;96.55;95377.75;5076645;28;20427;-82
2021/01/03 02:16:22;;;;;;;17.80;10.30;;;;;;;0.19;97.28;95374.69;5077348;28;20509;-81
2021/01/03 02:18:51;;;;;;;19.23;11.00;;;;;;;0.09;97.91;95371.63;5079387;28;20448;-81
2021/01/03 02:21:23;;;;;;;18.73;12.63;;;;;;;0.21;98.04;95375.63;5078826;28;20488;-80
2021/01/03 02:23:58;;;;;;;20.50;10.70;;;;;;;0.18;98.55;95381.91;5081079;28;20416;-81
2021/01/03 02:26:29;;;;;;;18.57;11.13;;;;;;;-0.04;99.72;95368.84;5082880;28;20421;-81
2021/01/03 02:28:57;;;;;;;21.07;12.23;;;;;;;0.02;100.00;95377.47;5083160;28;20469;-81
2021/01/03 02:31:29;;;;;;;23.07;12.23;;;;;;;-0.03;100.00;95384.22;5082630;28;20442;-82
2021/01/03 02:33:57;;;;;;;21.43;12.70;;;;;;;-0.06;100.00;95371.97;5081802;28;20426;-82
2021/01/03 02:36:27;;;;;;;20.27;12.90;;;;;;;0.07;100.00;95384.63;5082918;28;20449;-81
2021/01/03 02:39:05;;;;;;;22.20;13.40;;;;;;;-0.07;100.00;95385.72;5083040;28;20441;-81
2021/01/03 02:41:33;;;;;;;23.03;13.00;;;;;;;-0.11;100.00;95375.38;5083264;28;20465;-81
2021/01/03 02:43:59;;;;;;;23.43;13.77;;;;;;;-0.02;100.00;95377.72;5083653;28;20495;-81
2021/01/03 02:46:27;;;;;;;20.00;11.73;;;;;;;-0.04;100.00;95382.81;5083291;28;20430;-81
2021/01/03 02:48:54;;;;;;;22.80;13.87;;;;;;;0.06;100.00;95380.56;5082914;28;20497;-82
2021/01/03 02:51:22;;;;;;;22.20;12.97;;;;;;;0.05;100.00;95376.47;5082347;28;20807;-82
2021/01/03 02:53:49;;;;;;;21.47;12.83;;;;;;;0.03;100.00;95372.88;5082272;28;20437;-81
2021/01/03 02:56:15;;;;;;;22.50;12.73;;;;;;;-0.06;100.00;95371.97;5082130;28;20426;-81
2021/01/03 02:58:42;;;;;;;26.03;14.80;;;;;;;-0.15;100.00;95371.56;5081430;28;20972;-81
2021/01/03 03:01:09;;;;;;;23.73;14.10;;;;;;;-0.07;100.00;95365.25;5082783;28;21004;-81
2021/01/03 03:03:35;;;;;;;23.40;14.07;;;;;;;-0.12;100.00;95365.25;5082182;28;20445;-81
2021/01/03 03:06:01;;;;;;;23.37;15.53;;;;;;;-0.18;100.00;95369.88;5079586;28;20445;-83
2021/01/03 03:08:28;;;;;;;22.47;14.60;;;;;;;-0.10;100.00;95365.50;5078217;28;20453;-82
2021/01/03 03:10:54;;;;;;;24.73;15.60;;;;;;;-0.25;100.00;95371.13;5077725;28;20444;-79
2021/01/03 03:13:20;;;;;;;26.07;16.03;;;;;;;-0.15;100.00;95366.97;5077745;28;20445;-79
2021/01/03 03:15:47;;;;;;;25.23;15.90;;;;;;;-0.17;100.00;95360.72;5079058;28;20513;-83
2021/01/03 03:18:14;;;;;;;31.40;17.43;;;;;;;-0.15;100.00;95361.66;5099529;28;20448;-80
2021/01/03 03:20:40;;;;;;;26.60;15.40;;;;;;;-0.05;100.00;95356.78;5102027;28;20489;-79
2021/01/03 03:23:07;;;;;;;25.20;13.70;;;;;;;-0.03;100.00;95360.38;5101976;28;20468;-80
2021/01/03 03:25:33;;;;;;;26.00;14.50;;;;;;;-0.12;100.00;95352.72;5101833;28;20450;-79
2021/01/03 03:27:59;;;;;;;29.97;15.63;;;;;;;-0.15;100.00;95345.78;5088426;28;20433;-84
2021/01/03 03:30:26;;;;;;;30.40;15.77;;;;;;;-0.24;100.00;95359.34;5081657;28;20455;-83
2021/01/03 03:32:53;;;;;;;26.80;16.43;;;;;;;-0.20;100.00;95351.84;5086485;28;20988;-82
2021/01/03 03:35:23;;;;;;;27.13;16.20;;;;;;;-0.14;100.00;95347.22;5081788;28;20469;-80
2021/01/03 03:37:50;;;;;;;26.40;15.63;;;;;;;-0.19;100.00;95358.56;5079696;28;20436;-80
2021/01/03 03:40:17;;;;;;;21.20;14.77;;;;;;;-0.28;100.00;95350.22;5079629;28;20429;-80
2021/01/03 03:42:43;;;;;;;28.27;16.93;;;;;;;-0.16;100.00;95352.28;5079841;28;20461;-79
2021/01/03 03:45:12;;;;;;;26.13;15.20;;;;;;;-0.16;100.00;95346.97;5081437;28;20452;-80
2021/01/03 03:47:38;;;;;;;28.37;16.40;;;;;;;-0.10;100.00;95344.31;5081492;28;20441;-80
2021/01/03 03:50:09;;;;;;;34.10;18.07;;;;;;;-0.17;100.00;95345.56;5082299;28;20525;-80
2021/01/03 03:52:35;;;;;;;30.10;16.63;;;;;;;-0.23;100.00;95341.50;5081319;28;20493;-80
2021/01/03 03:55:01;;;;;;;29.20;18.07;;;;;;;-0.26;100.00;95351.16;5081703;28;20825;-80
2021/01/03 03:57:28;;;;;;;25.50;16.70;;;;;;;-0.30;100.00;95336.72;5081746;28;20434;-84
2021/01/03 03:59:54;;;;;;;29.47;16.10;;;;;;;-0.32;100.00;95337.25;5080603;28;20794;-84
2021/01/03 04:02:20;;;;;;;29.73;16.63;;;;;;;-0.28;100.00;95337.66;5081060;28;20493;-83
2021/01/03 04:04:47;;;;;;;28.07;17.20;;;;;;;-0.31;100.00;95343.22;5080962;28;20451;-84
2021/01/03 04:07:14;;;;;;;29.47;18.53;;;;;;;-0.40;100.00;95338.97;5081581;28;20513;-81
2021/01/03 04:09:40;;;;;;;33.80;18.17;;;;;;;-0.36;100.00;95333.41;5081652;28;20449;-80
2021/01/03 04:12:07;;;;;;;29.23;16.87;;;;;;;-0.31;100.00;95336.00;5081717;28;20476;-80
2021/01/03 04:14:33;;;;;;;28.90;16.53;;;;;;;-0.18;100.00;95333.50;5081444;28;20456;-80
2021/01/03 04:17:02;;;;;;;32.97;18.00;;;;;;;-0.16;100.00;95333.03;5081443;28;20488;-80
2021/01/03 04:19:29;;;;;;;28.17;17.87;;;;;;;-0.16;100.00;95333.72;5080437;28;20934;-80
2021/01/03 04:21:57;;;;;;;28.97;16.67;;;;;;;-0.36;100.00;95326.19;5079260;28;20558;-80
2021/01/03 04:24:25;;;;;;;31.10;17.60;;;;;;;-0.30;100.00;95326.84;5081326;28;20548;-80
2021/01/03 04:26:53;;;;;;;31.70;18.63;;;;;;;-0.38;100.00;95333.91;5082123;28;20434;-80
2021/01/03 04:29:20;;;;;;;29.10;17.27;;;;;;;-0.25;100.00;95333.34;5080674;28;20461;-80
2021/01/03 04:31:46;;;;;;;35.50;19.23;;;;;;;-0.31;100.00;95333.34;5083617;28;20453;-82
2021/01/03 04:34:13;;;;;;;33.13;18.40;;;;;;;-0.46;100.00;95340.22;5085905;28;20445;-82
2021/01/03 04:36:40;;;;;;;33.40;18.40;;;;;;;-0.28;100.00;95342.28;5085649;28;20469;-82
2021/01/03 04:39:07;;;;;;;33.00;18.07;;;;;;;-0.37;100.00;95348.56;5083491;28;20442;-83
2021/01/03 04:41:39;;;;;;;34.80;19.17;;;;;;;-0.36;100.00;95346.66;5084729;28;20521;-82
2021/01/03 04:44:20;;;;;;;33.03;18.87;;;;;;;-0.55;100.00;95346.53;5085171;28;20433;-82
2021/01/03 04:46:48;;;;;;;33.33;17.90;;;;;;;-0.49;100.00;95349.13;5083861;28;20421;-82
2021/01/03 04:49:24;;;;;;;36.90;19.97;;;;;;;-0.45;100.00;95352.97;5084961;28;20437;-82
2021/01/03 04:52:29;;;;;;;36.73;20.30;;;;;;;-0.40;100.00;95359.44;5084630;28;20598;-80
2021/01/03 04:55:12;;;;;;;33.20;19.37;;;;;;;-0.30;100.00;95347.31;5083784;28;20471;-79
2021/01/03 04:57:47;;;;;;;34.07;18.47;;;;;;;-0.37;100.00;95348.56;5079173;28;20424;-80
2021/01/03 05:00:16;;;;;;;37.50;17.80;;;;;;;-0.31;100.00;95356.47;5078988;28;20432;-79
2021/01/03 05:03:07;;;;;;;31.07;18.17;;;;;;;-0.21;100.00;95347.75;5078574;28;20990;-80
2021/01/03 05:05:35;;;;;;;33.87;18.73;;;;;;;-0.20;100.00;95354.50;5079355;28;20421;-79
2021/01/03 05:08:13;;;;;;;33.70;16.97;;;;;;;-0.10;100.00;95360.94;5078762;28;20450;-79
2021/01/03 05:10:40;;;;;;;31.47;17.97;;;;;;;-0.02;100.00;95363.75;5078828;28;20513;-79
2021/01/03 05:13:32;;;;;;;31.80;16.63;;;;;;;-0.07;100.00;95359.94;5078893;28;20453;-79
2021/01/03 05:15:58;;;;;;;27.77;16.57;;;;;;;-0.08;100.00;95358.50;5078607;28;20871;-79
2021/01/03 05:18:25;;;;;;;29.70;16.77;;;;;;;0.08;100.00;95356.19;5077689;28;20903;-80
2021/01/03 05:20:55;;;;;;;29.13;17.63;;;;;;;0.04;100.00;95376.94;5076652;28;20544;-78
2021/01/03 05:23:24;;;;;;;33.53;17.73;;;;;;;-0.27;100.00;95354.28;5075672;28;20804;-79
2021/01/03 05:25:52;;;;;;;27.80;15.33;;;;;;;-0.16;100.00;95368.19;5077698;28;20520;-79
2021/01/03 05:28:22;;;;;;;29.83;17.57;;;;;;;-0.34;100.00;95357.47;5078800;28;20913;-79
2021/01/03 05:30:49;;;;;;;27.70;17.30;;;;;;;-0.11;100.00;95364.78;5079117;28;20513;-80
2021/01/03 05:33:24;;;;;;;28.60;19.10;;;;;;;-0.06;100.00;95358.72;5077533;28;21021;-79
2021/01/03 05:35:50;;;;;;;32.50;18.47;;;;;;;-0.09;100.00;95365.00;5078593;28;20413;-80
2021/01/03 05:38:37;;;;;;;33.17;17.67;;;;;;;-0.10;100.00;95360.22;5078350;28;20517;-79
2021/01/03 05:41:14;;;;;;;29.53;17.27;;;;;;;0.03;100.00;95364.94;5077800;28;20549;-80
2021/01/03 05:43:41;;;;;;;33.27;18.00;;;;;;;-0.11;100.00;95364.78;5077785;28;20519;-81
2021/01/03 05:46:18;;;;;;;28.93;18.13;;;;;;;-0.11;100.00;95359.47;5074775;28;20445;-79
2021/01/03 05:48:56;;;;;;;34.73;18.83;;;;;;;-0.16;100.00;95367.47;5079131;28;20455;-80
2021/01/03 05:51:42;;;;;;;32.50;17.53;;;;;;;-0.21;100.00;95365.56;5079801;28;20426;-81
2021/01/03 05:54:13;;;;;;;35.00;20.83;;;;;;;-0.16;100.00;95356.88;5080157;28;20465;-80
2021/01/03 05:56:40;;;;;;;31.83;17.93;;;;;;;-0.12;100.00;95366.00;5079060;28;20438;-81
2021/01/03 05:59:14;;;;;;;35.03;18.17;;;;;;;-0.28;100.00;95360.81;5079863;28;20565;-80
2021/01/03 06:01:41;;;;;;;28.67;17.13;;;;;;;-0.17;100.00;95366.75;5080185;28;20928;-80
2021/01/03 06:04:10;;;;;;;29.07;16.53;;;;;;;-0.17;100.00;95361.47;5080669;28;20537;-80
2021/01/03 06:07:08;;;;;;;33.10;19.00;;;;;;;-0.26;100.00;95359.13;5081068;28;20528;-80
2021/01/03 06:09:38;;;;;;;29.60;18.30;;;;;;;-0.38;100.00;95364.97;5080414;28;20524;-81
2021/01/03 06:12:09;;;;;;;32.53;18.57;;;;;;;-0.27;100.00;95362.97;5083072;28;20490;-81
2021/01/03 06:14:37;;;;;;;35.17;18.43;;;;;;;-0.47;100.00;95365.97;5083242;28;20410;-81
2021/01/03 06:17:07;;;;;;;39.27;19.37;;;;;;;-0.31;100.00;95370.44;5083405;28;20852;-82
2021/01/03 06:19:42;;;;;;;33.40;21.13;;;;;;;-0.21;100.00;95373.53;5083163;28;20441;-82
2021/01/03 06:22:28;;;;;;;33.03;18.33;;;;;;;-0.38;100.00;95367.63;5083756;28;20485;-82
2021/01/03 06:24:55;;;;;;;29.33;17.00;;;;;;;-0.24;100.00;95364.63;5082884;28;20430;-81
2021/01/03 06:27:30;;;;;;;32.07;17.97;;;;;;;-0.19;100.00;95363.16;5083511;28;20532;-80
2021/01/03 06:30:03;;;;;;;26.83;17.30;;;;;;;-0.23;100.00;95366.06;5075457;28;20452;-79
2021/01/03 06:33:08;;;;;;;33.67;17.50;;;;;;;-0.35;100.00;95362.06;5074029;28;20460;-79
2021/01/03 06:35:41;;;;;;;30.40;17.43;;;;;;;-0.31;100.00;95359.13;5054890;28;20461;-82
2021/01/03 06:38:13;;;;;;;31.23;18.40;;;;;;;-0.20;100.00;95362.44;5083632;28;20433;-81
2021/01/03 06:40:44;;;;;;;31.03;17.33;;;;;;;-0.25;100.00;95365.84;5090155;28;20654;-79
2021/01/03 06:43:32;;;;;;;31.90;17.73;;;;;;;-0.15;100.00;95369.63;5098220;28;20551;-78
2021/01/03 06:46:19;;;;;;;34.67;18.93;;;;;;;-0.29;100.00;95368.03;5100028;28;20418;-78
2021/01/03 06:49:26;;;;;;;29.60;18.13;;;;;;;-0.18;100.00;95377.84;5102219;28;20425;-80
2021/01/03 06:52:40;;;;;;;31.57;16.87;;;;;;;-0.20;100.00;95373.03;5085012;28;20554;-82
2021/01/03 06:55:28;;;;;;;31.43;18.97;;;;;;;-0.18;100.00;95375.91;5024883;28;20459;-81
2021/01/03 06:58:14;;;;;;;30.80;17.93;;;;;;;-0.21;100.00;95370.88;5088429;28;20409;-81
2021/01/03 07:00:46;;;;;;;29.43;16.53;;;;;;;-0.14;100.00;95373.72;5088575;28;20508;-82
2021/01/03 07:03:18;;;;;;;31.30;17.53;;;;;;;-0.27;100.00;95378.88;5086540;28;20461;-84
2021/01/03 07:05:55;;;;;;;28.83;17.60;;;;;;;-0.24;100.00;95383.19;5080948;28;20486;-83
2021/01/03 07:08:23;;;;;;;30.10;16.87;;;;;;;-0.03;100.00;95381.59;5080544;28;20409;-83
2021/01/03 07:10:50;;;;;;;35.27;19.93;;;;;;;0.00;100.00;95385.91;5081195;28;20433;-83
2021/01/03 07:13:41;;;;;;;30.90;16.97;;;;;;;0.06;100.00;95393.09;5080014;28;20461;-82
2021/01/03 07:16:54;;;;;;;29.10;15.90;;;;;;;-0.23;100.00;95389.94;5080281;28;20463;-83
2021/01/03 07:19:36;;;;;;;28.70;16.70;;;;;;;-0.25;100.00;95391.63;5082564;28;20433;-83
2021/01/03 07:22:07;;;;;;;27.00;16.23;;;;;;;-0.27;100.00;95392.13;5085449;28;20485;-82
2021/01/03 07:24:37;;;;;;;29.83;17.13;;;;;;;-0.24;100.00;95393.78;5087321;28;20437;-82
2021/01/03 07:27:38;;;;;;;31.93;16.50;;;;;;;0.00;100.00;95390.50;5087544;28;20577;-82
2021/01/03 07:30:28;;;;;;;28.30;17.00;;;;;;;0.08;100.00;95388.75;5086482;28;20535;-81
2021/01/03 07:33:02;;;;;;;27.77;15.97;;;;;;;-0.04;100.00;95384.75;5081746;28;20545;-81
2021/01/03 07:35:34;;;;;;;29.60;16.20;;;;;;;-0.11;100.00;95387.91;5082422;28;20431;-85
2021/01/03 07:38:28;;;;;;;31.60;18.37;;;;;;;-0.13;100.00;95388.41;5085177;28;20433;-82
2021/01/03 07:41:04;;;;;;;33.20;19.53;;;;;;;-0.08;100.00;95392.94;5087988;28;20465;-82
2021/01/03 07:43:52;;;;;;;27.33;16.17;;;;;;;-0.04;100.00;95398.72;5087647;28;20480;-82
2021/01/03 07:46:41;;;;;;;30.70;18.47;;;;;;;-0.08;100.00;95403.56;5087148;28;20429;-82
2021/01/03 07:49:24;;;;;;;30.67;17.30;;;;;;;-0.05;100.00;95410.53;5087499;28;20414;-82
2021/01/03 07:51:52;;;;;;;35.10;18.33;;;;;;;-0.17;100.00;95408.44;5089671;28;20974;-81
2021/01/03 07:54:19;;;;;;;30.83;17.17;;;;;;;-0.09;100.00;95412.00;5088946;28;20462;-81
2021/01/03 07:56:45;;;;;;;27.07;16.53;;;;;;;-0.14;100.00;95402.88;5087607;28;20461;-82
2021/01/03 07:59:11;;;;;;;29.10;17.33;;;;;;;-0.22;100.00;95412.56;5086906;28;20471;-83
2021/01/03 08:01:43;;;;;;;30.43;18.10;;;;;;;-0.05;100.00;95410.53;5085998;28;20520;-83
2021/01/03 08:04:11;;;;;;;34.90;17.40;;;;;;;-0.12;100.00;95416.34;5085358;28;20422;-82
2021/01/03 08:06:37;;;;;;;29.40;17.50;;;;;;;-0.24;100.00;95414.97;5088629;28;20467;-82
2021/01/03 08:09:05;;;;;;;27.07;17.50;;;;;;;-0.05;100.00;95410.53;5088927;28;20470;-83
2021/01/03 08:11:36;;;;;;;29.37;17.57;;;;;;;0.00;100.00;95411.72;5088473;28;20965;-83
2021/01/03 08:14:06;;;;;;;34.73;18.87;;;;;;;0.15;100.00;95419.31;5086205;28;20468;-83
2021/01/03 08:16:34;;;;;;;36.40;18.07;;;;;;;0.21;100.00;95412.03;5078342;28;20485;-83
2021/01/03 08:19:04;;;;;;;30.77;17.70;;;;;;;0.26;100.00;95417.28;5087934;28;20521;-81
2021/01/03 08:21:32;;;;;;;31.60;17.53;;;;;;;0.32;100.00;95414.56;5089824;28;20974;-82
2021/01/03 08:24:10;;;;;;;34.37;18.20;;;;;;;0.20;100.00;95416.59;5087286;28;20448;-83
2021/01/03 08:26:43;;;;;;;34.47;17.20;;;;;;;0.28;100.00;95417.50;5087049;28;20409;-83
2021/01/03 08:29:21;;;;;;;34.47;17.40;;;;;;;0.32;100.00;95423.25;5080026;28;20469;-83
2021/01/03 08:31:50;;;;;;;29.23;16.53;;;;;;;0.23;100.00;95417.53;5077925;28;20492;-84
2021/01/03 08:34:24;;;;;;;33.13;17.43;;;;;;;0.20;100.00;95423.84;5082067;28;20460;-80
2021/01/03 08:36:50;;;;;;;31.07;18.13;;;;;;;0.15;100.00;95428.00;5089020;28;20433;-83
2021/01/03 08:39:18;;;;;;;34.17;17.77;;;;;;;0.31;100.00;95426.41;5086308;28;20430;-83
2021/01/03 08:41:52;;;;;;;30.37;17.70;;;;;;;0.08;100.00;95430.44;5086033;28;20531;-81
2021/01/03 08:44:24;;;;;;;29.70;16.47;;;;;;;0.16;100.00;95428.72;5087201;28;20449;-82
2021/01/03 08:47:01;;;;;;;29.77;16.90;;;;;;;0.28;100.00;95430.06;5086483;28;20517;-83
2021/01/03 08:49:28;;;;;;;28.90;15.90;;;;;;;0.43;100.00;95431.13;5087163;28;21011;-83
2021/01/03 08:52:06;;;;;;;32.13;17.00;;;;;;;0.48;100.00;95437.59;5088017;28;20460;-83
2021/01/03 08:54:33;;;;;;;29.97;16.00;;;;;;;0.57;100.00;95445.25;5086753;28;20769;-82
2021/01/03 08:57:02;;;;;;;31.73;17.83;;;;;;;0.32;100.00;95446.41;5086788;28;20437;-82
2021/01/03 08:59:30;;;;;;;27.63;15.80;;;;;;;0.25;100.00;95441.66;5082282;28;20461;-80
2021/01/03 09:01:57;;;;;;;32.40;17.23;;;;;;;0.42;100.00;95450.19;5078298;28;20989;-80
2021/01/03 09:04:24;;;;;;;26.73;16.30;;;;;;;0.41;100.00;95452.13;5079751;28;20448;-80
2021/01/03 09:06:53;;;;;;;27.80;16.63;;;;;;;0.41;100.00;95451.41;5081895;28;20802;-80
2021/01/03 09:09:23;;;;;;;31.77;16.70;;;;;;;0.48;100.00;95458.81;5080607;28;20434;-81
2021/01/03 09:11:53;;;;;;;27.70;16.80;;;;;;;0.39;100.00;95457.22;5081573;28;20482;-81
2021/01/03 09:14:27;;;;;;;27.07;16.97;;;;;;;0.42;100.00;95460.81;5082329;28;20501;-81
2021/01/03 09:16:58;;;;;;;30.90;15.70;;;;;;;0.59;100.00;95450.78;5081615;28;20858;-81
2021/01/03 09:19:29;;;;;;;24.60;15.57;;;;;;;0.62;100.00;95465.00;5082328;28;20456;-80
2021/01/03 09:21:58;;;;;;;28.97;15.30;;;;;;;0.79;100.00;95454.94;5080268;28;20489;-82
2021/01/03 09:24:28;;;;;;;21.60;13.47;;;;;;;0.79;100.00;95471.59;5079105;28;20438;-81
2021/01/03 09:26:58;;;;;;;21.83;14.00;;;;;;;0.75;100.00;95470.44;5081224;28;20448;-80
2021/01/03 09:29:29;;;;;;;25.63;17.40;;;;;;;0.91;100.00;95472.91;5099196;28;20457;-83
2021/01/03 09:32:03;;;;;;;21.50;13.67;;;;;;;0.94;99.76;95466.59;5099284;28;20447;-83
2021/01/03 09:34:46;;;;;;;26.63;15.90;;;;;;;0.94;100.00;95468.56;5099222;28;20437;-81
2021/01/03 09:37:23;;;;;;;23.40;14.67;;;;;;;0.95;100.00;95472.66;5081785;28;20445;-81
2021/01/03 09:40:31;;;;;;;21.13;13.67;;;;;;;1.03;100.00;95476.91;5077910;28;20528;-82
2021/01/03 09:43:06;;;;;;;22.37;13.90;;;;;;;1.06;99.94;95477.88;5072401;28;20521;-81
2021/01/03 09:45:50;;;;;;;21.93;13.20;;;;;;;1.24;99.18;95476.47;5080360;28;20501;-81
2021/01/03 09:48:28;;;;;;;21.90;13.10;;;;;;;1.33;98.96;95486.75;5080302;28;20890;-81
2021/01/03 09:51:05;;;;;;;27.07;15.20;;;;;;;1.37;97.40;95479.94;5080131;28;20517;-81
2021/01/03 09:53:38;;;;;;;24.03;13.93;;;;;;;1.27;97.02;95480.78;5080622;28;20473;-80
2021/01/03 09:56:16;;;;;;;23.20;13.13;;;;;;;1.25;98.28;95478.63;5078939;28;20520;-80
2021/01/03 09:58:48;;;;;;;25.70;13.73;;;;;;;1.34;99.05;95488.91;5079052;28;20561;-79
2021/01/03 10:01:28;;;;;;;25.20;13.83;;;;;;;1.32;98.17;95478.06;5078528;28;20465;-79
2021/01/03 10:03:54;;;;;;;25.33;15.30;;;;;;;1.24;97.99;95477.19;5077562;28;20445;-80
2021/01/03 10:06:24;;;;;;;24.17;14.60;;;;;;;1.21;98.38;95480.13;5080609;28;20449;-81
2021/01/03 10:09:07;;;;;;;26.67;16.40;;;;;;;1.32;98.11;95474.66;5079841;28;20918;-80
2021/01/03 10:11:34;;;;;;;24.60;14.47;;;;;;;1.16;96.43;95478.25;5077305;28;20489;-80
2021/01/03 10:14:04;;;;;;;27.40;15.60;;;;;;;1.15;96.77;95472.22;5080653;28;20449;-83
2021/01/03 10:16:34;;;;;;;23.40;15.00;;;;;;;1.25;97.68;95469.94;5080125;28;20436;-84
2021/01/03 10:19:01;;;;;;;23.23;14.10;;;;;;;1.33;97.30;95473.47;5078979;28;20430;-83
2021/01/03 10:21:33;;;;;;;19.83;12.57;;;;;;;1.41;95.79;95469.75;5080155;28;20477;-84
2021/01/03 10:24:02;;;;;;;21.90;12.87;;;;;;;1.50;94.16;95474.69;5096002;28;20417;-83
2021/01/03 10:26:32;;;;;;;17.97;12.63;;;;;;;1.56;93.96;95472.00;5098589;28;20422;-81
2021/01/03 10:28:58;;;;;;;22.60;13.60;;;;;;;1.49;94.27;95467.25;5098629;28;20508;-81
2021/01/03 10:31:26;;;;;;;22.37;11.87;;;;;;;1.44;94.75;95465.38;5097566;28;20433;-84
2021/01/03 10:33:53;;;;;;;18.43;12.17;;;;;;;1.39;94.41;95461.56;5077612;28;20449;-84
2021/01/03 10:36:21;;;;;;;21.63;11.80;;;;;;;1.43;94.67;95461.28;5078129;28;20434;-84
2021/01/03 10:38:48;;;;;;;18.27;11.93;;;;;;;1.27;94.71;95462.19;5078454;28;20491;-84
2021/01/03 10:41:16;;;;;;;21.13;12.53;;;;;;;1.39;95.10;95466.16;5079827;28;20579;-84
2021/01/03 10:43:44;;;;;;;23.07;13.43;;;;;;;1.33;95.26;95465.50;5081695;28;21011;-84
2021/01/03 10:46:11;;;;;;;22.40;12.53;;;;;;;1.33;95.48;95458.25;5080447;28;20434;-84
2021/01/03 10:48:38;;;;;;;24.53;14.93;;;;;;;1.30;95.47;95459.25;5079954;28;20509;-83
2021/01/03 10:51:05;;;;;;;20.73;12.43;;;;;;;1.27;95.32;95459.53;5078556;28;20815;-82
2021/01/03 10:53:31;;;;;;;19.43;13.13;;;;;;;1.33;95.26;95458.25;5079931;28;20525;-83
2021/01/03 10:55:59;;;;;;;22.90;13.90;;;;;;;1.25;95.68;95459.31;5079299;28;20785;-83
2021/01/03 10:58:25;;;;;;;23.53;14.53;;;;;;;1.09;95.96;95455.63;5080726;28;20445;-83
2021/01/03 11:00:52;;;;;;;27.10;13.93;;;;;;;0.97;96.82;95449.69;5081093;28;20445;-83
2021/01/03 11:03:18;;;;;;;22.80;14.20;;;;;;;0.98;97.09;95453.78;5080070;28;20496;-79
2021/01/03 11:05:46;;;;;;;25.43;14.17;;;;;;;1.16;97.20;95459.66;5076243;28;20496;-79
2021/01/03 11:08:12;;;;;;;21.30;13.17;;;;;;;1.44;96.69;95452.09;5076489;28;20449;-79
2021/01/03 11:10:38;;;;;;;21.87;13.47;;;;;;;1.34;95.43;95458.97;5076852;28;20468;-79
2021/01/03 11:13:04;;;;;;;23.53;14.40;;;;;;;1.38;95.32;95454.78;5079665;28;20450;-80
2021/01/03 11:15:31;;;;;;;20.07;12.70;;;;;;;1.45;95.08;95443.59;5079717;28;20515;-81
2021/01/03 11:17:57;;;;;;;22.80;14.57;;;;;;;1.49;95.14;95459.28;5078805;28;20422;-79
2021/01/03 11:20:24;;;;;;;23.70;13.97;;;;;;;1.45;95.54;95454.25;5079245;28;20918;-80
2021/01/03 11:22:51;;;;;;;20.83;13.20;;;;;;;1.53;95.25;95457.06;5079288;28;20485;-80
2021/01/03 11:25:18;;;;;;;22.50;12.83;;;;;;;1.53;94.87;95449.09;5079511;28;20441;-80
2021/01/03 11:27:45;;;;;;;21.37;12.27;;;;;;;1.53;94.84;95438.44;5081088;28;21035;-80
2021/01/03 11:30:12;;;;;;;19.03;10.23;;;;;;;1.47;94.52;95445.78;5080539;28;20461;-80
2021/01/03 11:32:38;;;;;;;22.33;14.17;;;;;;;1.49;94.52;95440.66;5086420;28;20540;-80
2021/01/03 11:35:06;;;;;;;20.67;12.77;;;;;;;1.47;94.64;95441.16;5082286;28;20841;-81